Chaleur - Miscou: Past 24 Hour Conditions

 

St. Anthony Airport

01:30 PM NST 01 March 2017
Disclaimer

This table is a summary of hourly weather conditions for the past 24 hours.
Please note that these observations might not always be representative of weather conditions over their associated marine area.

Date / Time
(NST)
Wind(knots) Conditions Visibility(km) Pressure(kPa) Air tempC) Relative humidity(%) Dew pointC) Wind Chill
01 March 2017
13:30 S 14 Partly Cloudy 16 101.3 -2 70 -7 -9
12:30 S 14 gust 20 Light Snow 8 101.5 -3 70 -8 -10
11:30 S 13 gust 19 Sunny 16 101.6 -4 63 -10 -11
10:30 S 14 gust 19 Sunny 16 101.7 -7 64 -12 -15
9:30 SE 9 Partly Cloudy 16 101.9 -11 74 -14 -18
8:30 SSE 11 Sunny 16 101.9 -13 76 -16 -21
7:30 SSE 7 Sunny 16 102.0 -15 84 -17 -22
6:30 S 6 Clear 16 102.1 -12 77 -16 -18
5:30 calm Clear 16 102.1 -13 74 -16 *
4:30 W 5 Clear 16 102.1 -12 69 -17 -17
3:30 W 9 gust 16 Clear 16 102.2 -11 63 -17 -19
2:30 W 15 gust 20 Clear 16 102.1 -11 60 -17 -20
1:30 W 15 Clear 16 102.1 -11 62 -17 -21
0:30 W 16 Clear 16 102.0 -11 60 -17 -20
28 February 2017
23:30 W 17 gust 22 Clear 16 101.9 -10 59 -17 -20
22:30 W 15 Clear 16 101.9 -10 61 -16 -19
21:30 W 14 Clear 16 101.8 -9 60 -16 -18
20:30 W 17 gust 23 Clear 16 101.7 -8 55 -16 -18
19:30 W 16 gust 23 Clear 16 101.6 -8 57 -15 -17
18:30 W 18 gust 24 Clear 16 101.5 -8 57 -16 -18
17:30 W 18 gust 27 Sunny 16 101.4 -8 56 -16 -18
16:30 WSW 20 gust 27 Sunny 16 101.4 -8 57 -15 -18
15:30 WSW 26 gust 31 Sunny 16 101.4 -9 61 -15 -20
14:30 WSW 23 gust 33 Haze 6 101.3 -9 66 -15 -20
13:30 WSW 22 gust 31 Sunny 13 101.3 -10 67 -15 -21

Zoom-in to make a selection

Map of Atlantic - Newfoundland marine weather areas Southwestern Grand Banks - 44138 Banquereau - 44139 Tail of the Bank - 44140 Nickerson Bank - 44251 Northeast Burgeo Bank - 44255 Blanc-Sablon Airport Cap Whittle Chevery Natashquan Airport Heath Point Miscou Island Grand Étang Ingonish Beach North Mountain St.Paul Island J.A. Douglas McCurdy Sydney Airport Charlottetown Airport East Point North Cape Argentia Bonavista Burgeo Cape Race Corner Brook Daniel's Harbour Englee Ferolle Point La Scie Port aux Basques Rocky Harbour Sagona Island St. Anthony Airport St. John's Int'l Airport St. Lawrence Stephenville Airport Twillingate Winterland Wreckhouse Cartwright Airport Mary's Harbour Grates Cove Pool's Island Marticot Island Long Pond Eskasoni (First Nations) Îles de la Madeleine Airport
Legend:
buoy Buoy
land station Land Station

Atlantic - Newfoundland Area

Another Region

What we are doing

Date modified: